sensor_id;sensor_type;location;lat;lon;timestamp;P1;durP1;ratioP1;P2;durP2;ratioP2
920;SDS011;447;51.332;6.778;2023-10-31T00:01:43;3.10;;;2.90;;
920;SDS011;447;51.332;6.778;2023-10-31T00:04:11;2.90;;;2.70;;
920;SDS011;447;51.332;6.778;2023-10-31T00:06:37;3.63;;;3.43;;
920;SDS011;447;51.332;6.778;2023-10-31T00:09:05;3.60;;;3.40;;
920;SDS011;447;51.332;6.778;2023-10-31T00:11:34;3.10;;;2.90;;
920;SDS011;447;51.332;6.778;2023-10-31T00:14:00;3.33;;;3.10;;
920;SDS011;447;51.332;6.778;2023-10-31T00:16:26;3.17;;;2.93;;
920;SDS011;447;51.332;6.778;2023-10-31T00:18:55;3.63;;;3.33;;
920;SDS011;447;51.332;6.778;2023-10-31T00:21:22;3.20;;;3.00;;
920;SDS011;447;51.332;6.778;2023-10-31T00:23:48;3.30;;;3.00;;
920;SDS011;447;51.332;6.778;2023-10-31T00:26:14;3.00;;;2.80;;
920;SDS011;447;51.332;6.778;2023-10-31T00:28:48;2.93;;;2.70;;
920;SDS011;447;51.332;6.778;2023-10-31T00:31:14;2.90;;;2.70;;
920;SDS011;447;51.332;6.778;2023-10-31T00:33:40;2.80;;;2.50;;
920;SDS011;447;51.332;6.778;2023-10-31T00:36:07;2.77;;;2.50;;
920;SDS011;447;51.332;6.778;2023-10-31T00:38:34;2.80;;;2.60;;
920;SDS011;447;51.332;6.778;2023-10-31T00:41:00;4.63;;;3.00;;
920;SDS011;447;51.332;6.778;2023-10-31T00:43:28;2.83;;;2.63;;
920;SDS011;447;51.332;6.778;2023-10-31T00:45:54;2.60;;;2.40;;
920;SDS011;447;51.332;6.778;2023-10-31T00:48:20;2.93;;;2.73;;
920;SDS011;447;51.332;6.778;2023-10-31T00:50:46;3.10;;;2.90;;
920;SDS011;447;51.332;6.778;2023-10-31T00:53:14;3.53;;;2.60;;
920;SDS011;447;51.332;6.778;2023-10-31T00:55:40;3.77;;;3.00;;
920;SDS011;447;51.332;6.778;2023-10-31T00:58:13;3.13;;;2.93;;
920;SDS011;447;51.332;6.778;2023-10-31T01:00:39;3.80;;;3.07;;
920;SDS011;447;51.332;6.778;2023-10-31T01:03:05;3.40;;;2.63;;
920;SDS011;447;51.332;6.778;2023-10-31T01:05:34;2.80;;;2.60;;
920;SDS011;447;51.332;6.778;2023-10-31T01:08:02;2.90;;;2.70;;
920;SDS011;447;51.332;6.778;2023-10-31T01:10:29;2.80;;;2.60;;
920;SDS011;447;51.332;6.778;2023-10-31T01:13:01;3.37;;;2.63;;
920;SDS011;447;51.332;6.778;2023-10-31T01:15:29;3.00;;;2.80;;
920;SDS011;447;51.332;6.778;2023-10-31T01:18:00;2.80;;;2.60;;
920;SDS011;447;51.332;6.778;2023-10-31T01:20:26;2.73;;;2.53;;
920;SDS011;447;51.332;6.778;2023-10-31T01:22:52;3.13;;;2.80;;
920;SDS011;447;51.332;6.778;2023-10-31T01:25:18;4.30;;;2.80;;
920;SDS011;447;51.332;6.778;2023-10-31T01:27:47;4.33;;;3.20;;
920;SDS011;447;51.332;6.778;2023-10-31T01:30:13;2.97;;;2.67;;
920;SDS011;447;51.332;6.778;2023-10-31T01:32:42;2.67;;;2.47;;
920;SDS011;447;51.332;6.778;2023-10-31T01:35:10;3.17;;;2.53;;
920;SDS011;447;51.332;6.778;2023-10-31T01:37:36;2.80;;;2.60;;
920;SDS011;447;51.332;6.778;2023-10-31T01:40:03;2.57;;;2.37;;
920;SDS011;447;51.332;6.778;2023-10-31T01:42:32;2.33;;;2.13;;
920;SDS011;447;51.332;6.778;2023-10-31T01:45:00;4.50;;;2.40;;
920;SDS011;447;51.332;6.778;2023-10-31T01:47:26;2.90;;;2.67;;
920;SDS011;447;51.332;6.778;2023-10-31T01:49:54;4.60;;;2.80;;
920;SDS011;447;51.332;6.778;2023-10-31T01:52:23;2.63;;;2.43;;
920;SDS011;447;51.332;6.778;2023-10-31T01:54:49;4.70;;;2.10;;
920;SDS011;447;51.332;6.778;2023-10-31T01:57:15;3.20;;;2.20;;
920;SDS011;447;51.332;6.778;2023-10-31T01:59:42;3.03;;;2.50;;
920;SDS011;447;51.332;6.778;2023-10-31T02:02:08;3.80;;;2.73;;
920;SDS011;447;51.332;6.778;2023-10-31T02:04:35;3.50;;;2.67;;
920;SDS011;447;51.332;6.778;2023-10-31T02:07:01;2.93;;;2.67;;
920;SDS011;447;51.332;6.778;2023-10-31T02:09:29;3.10;;;2.70;;
920;SDS011;447;51.332;6.778;2023-10-31T02:11:56;3.17;;;2.60;;
920;SDS011;447;51.332;6.778;2023-10-31T02:14:24;2.40;;;2.20;;
920;SDS011;447;51.332;6.778;2023-10-31T02:16:50;5.00;;;2.83;;
920;SDS011;447;51.332;6.778;2023-10-31T02:19:19;3.30;;;2.90;;
920;SDS011;447;51.332;6.778;2023-10-31T02:21:46;3.47;;;3.17;;
920;SDS011;447;51.332;6.778;2023-10-31T02:24:14;4.03;;;3.10;;
920;SDS011;447;51.332;6.778;2023-10-31T02:26:40;4.27;;;2.80;;
920;SDS011;447;51.332;6.778;2023-10-31T02:29:08;3.40;;;3.10;;
920;SDS011;447;51.332;6.778;2023-10-31T02:31:37;2.73;;;2.40;;
920;SDS011;447;51.332;6.778;2023-10-31T02:34:04;2.77;;;2.57;;
920;SDS011;447;51.332;6.778;2023-10-31T02:36:30;3.20;;;2.77;;
920;SDS011;447;51.332;6.778;2023-10-31T02:38:56;4.33;;;2.70;;
920;SDS011;447;51.332;6.778;2023-10-31T02:41:22;3.23;;;2.90;;
920;SDS011;447;51.332;6.778;2023-10-31T02:43:51;2.60;;;2.40;;
920;SDS011;447;51.332;6.778;2023-10-31T02:46:22;4.33;;;2.60;;
920;SDS011;447;51.332;6.778;2023-10-31T02:48:51;5.50;;;3.23;;
920;SDS011;447;51.332;6.778;2023-10-31T02:51:19;3.20;;;2.90;;
920;SDS011;447;51.332;6.778;2023-10-31T02:53:45;3.37;;;2.80;;
920;SDS011;447;51.332;6.778;2023-10-31T02:56:11;5.40;;;2.70;;
920;SDS011;447;51.332;6.778;2023-10-31T02:58:37;4.60;;;3.23;;
920;SDS011;447;51.332;6.778;2023-10-31T03:01:03;4.40;;;3.80;;
920;SDS011;447;51.332;6.778;2023-10-31T03:03:34;4.03;;;3.17;;
920;SDS011;447;51.332;6.778;2023-10-31T03:05:59;3.83;;;3.37;;
920;SDS011;447;51.332;6.778;2023-10-31T03:08:28;3.80;;;3.47;;
920;SDS011;447;51.332;6.778;2023-10-31T03:10:56;7.07;;;4.33;;
920;SDS011;447;51.332;6.778;2023-10-31T03:13:24;3.63;;;3.20;;
920;SDS011;447;51.332;6.778;2023-10-31T03:15:53;6.80;;;4.20;;
920;SDS011;447;51.332;6.778;2023-10-31T03:18:19;5.53;;;4.23;;
920;SDS011;447;51.332;6.778;2023-10-31T03:20:48;5.53;;;3.73;;
920;SDS011;447;51.332;6.778;2023-10-31T03:23:19;4.93;;;4.53;;
920;SDS011;447;51.332;6.778;2023-10-31T03:25:47;4.97;;;4.13;;
920;SDS011;447;51.332;6.778;2023-10-31T03:28:19;7.10;;;4.53;;
920;SDS011;447;51.332;6.778;2023-10-31T03:30:48;4.57;;;4.17;;
920;SDS011;447;51.332;6.778;2023-10-31T03:33:17;5.27;;;4.23;;
920;SDS011;447;51.332;6.778;2023-10-31T03:35:45;4.33;;;3.93;;
920;SDS011;447;51.332;6.778;2023-10-31T03:38:12;5.37;;;4.87;;
920;SDS011;447;51.332;6.778;2023-10-31T03:40:42;4.50;;;4.07;;
920;SDS011;447;51.332;6.778;2023-10-31T03:43:11;5.30;;;4.03;;
920;SDS011;447;51.332;6.778;2023-10-31T03:45:42;4.80;;;4.30;;
920;SDS011;447;51.332;6.778;2023-10-31T03:48:08;4.70;;;4.30;;
920;SDS011;447;51.332;6.778;2023-10-31T03:50:34;4.80;;;4.30;;
920;SDS011;447;51.332;6.778;2023-10-31T03:53:00;5.00;;;4.50;;
920;SDS011;447;51.332;6.778;2023-10-31T03:55:26;4.63;;;4.23;;
920;SDS011;447;51.332;6.778;2023-10-31T03:57:52;8.47;;;5.90;;
920;SDS011;447;51.332;6.778;2023-10-31T04:00:20;5.30;;;4.80;;
920;SDS011;447;51.332;6.778;2023-10-31T04:02:50;4.87;;;4.37;;
920;SDS011;447;51.332;6.778;2023-10-31T04:05:17;6.43;;;5.33;;
920;SDS011;447;51.332;6.778;2023-10-31T04:07:44;7.87;;;5.90;;
920;SDS011;447;51.332;6.778;2023-10-31T04:10:12;4.67;;;4.27;;
920;SDS011;447;51.332;6.778;2023-10-31T04:12:38;5.57;;;5.00;;
920;SDS011;447;51.332;6.778;2023-10-31T04:15:07;4.80;;;4.30;;
920;SDS011;447;51.332;6.778;2023-10-31T04:17:34;5.03;;;4.33;;
920;SDS011;447;51.332;6.778;2023-10-31T04:20:00;4.90;;;4.50;;
920;SDS011;447;51.332;6.778;2023-10-31T04:22:29;5.30;;;4.80;;
920;SDS011;447;51.332;6.778;2023-10-31T04:24:55;4.80;;;4.27;;
920;SDS011;447;51.332;6.778;2023-10-31T04:27:23;6.90;;;4.73;;
920;SDS011;447;51.332;6.778;2023-10-31T04:29:49;5.57;;;4.70;;
920;SDS011;447;51.332;6.778;2023-10-31T04:32:17;5.57;;;5.07;;
920;SDS011;447;51.332;6.778;2023-10-31T04:34:47;5.87;;;5.27;;
920;SDS011;447;51.332;6.778;2023-10-31T04:37:15;5.13;;;4.60;;
920;SDS011;447;51.332;6.778;2023-10-31T04:39:41;6.00;;;4.60;;
920;SDS011;447;51.332;6.778;2023-10-31T04:42:10;5.27;;;4.77;;
920;SDS011;447;51.332;6.778;2023-10-31T04:44:36;4.53;;;4.10;;
920;SDS011;447;51.332;6.778;2023-10-31T04:47:04;5.20;;;4.70;;
920;SDS011;447;51.332;6.778;2023-10-31T04:49:34;4.77;;;4.33;;
920;SDS011;447;51.332;6.778;2023-10-31T04:52:02;7.17;;;4.27;;
920;SDS011;447;51.332;6.778;2023-10-31T04:54:33;5.13;;;4.63;;
920;SDS011;447;51.332;6.778;2023-10-31T04:57:02;4.97;;;4.40;;
920;SDS011;447;51.332;6.778;2023-10-31T04:59:29;5.27;;;4.40;;
920;SDS011;447;51.332;6.778;2023-10-31T05:01:57;4.40;;;3.90;;
920;SDS011;447;51.332;6.778;2023-10-31T05:04:26;5.13;;;4.63;;
920;SDS011;447;51.332;6.778;2023-10-31T05:06:51;5.20;;;4.80;;
920;SDS011;447;51.332;6.778;2023-10-31T05:09:18;5.37;;;4.47;;
920;SDS011;447;51.332;6.778;2023-10-31T05:11:45;4.03;;;3.73;;
920;SDS011;447;51.332;6.778;2023-10-31T05:14:11;5.00;;;4.50;;
920;SDS011;447;51.332;6.778;2023-10-31T05:16:41;6.43;;;4.50;;
920;SDS011;447;51.332;6.778;2023-10-31T05:19:10;5.07;;;4.50;;
920;SDS011;447;51.332;6.778;2023-10-31T05:21:36;4.73;;;4.27;;
920;SDS011;447;51.332;6.778;2023-10-31T05:24:02;4.80;;;4.40;;
920;SDS011;447;51.332;6.778;2023-10-31T05:26:30;4.83;;;4.47;;
920;SDS011;447;51.332;6.778;2023-10-31T05:28:56;4.33;;;3.90;;
920;SDS011;447;51.332;6.778;2023-10-31T05:31:23;4.73;;;4.33;;
920;SDS011;447;51.332;6.778;2023-10-31T05:33:50;5.03;;;4.63;;
920;SDS011;447;51.332;6.778;2023-10-31T05:36:22;4.83;;;4.43;;
920;SDS011;447;51.332;6.778;2023-10-31T05:38:53;5.90;;;4.97;;
920;SDS011;447;51.332;6.778;2023-10-31T05:41:21;5.10;;;4.70;;
920;SDS011;447;51.332;6.778;2023-10-31T05:43:47;4.60;;;4.20;;
920;SDS011;447;51.332;6.778;2023-10-31T05:46:13;4.20;;;3.90;;
920;SDS011;447;51.332;6.778;2023-10-31T05:48:45;4.60;;;4.20;;
920;SDS011;447;51.332;6.778;2023-10-31T05:51:20;4.70;;;4.17;;
920;SDS011;447;51.332;6.778;2023-10-31T05:53:50;5.10;;;4.50;;
920;SDS011;447;51.332;6.778;2023-10-31T05:56:16;4.50;;;4.10;;
920;SDS011;447;51.332;6.778;2023-10-31T05:58:45;4.67;;;4.27;;
920;SDS011;447;51.332;6.778;2023-10-31T06:01:11;4.80;;;4.40;;
920;SDS011;447;51.332;6.778;2023-10-31T06:03:37;5.10;;;4.33;;
920;SDS011;447;51.332;6.778;2023-10-31T06:06:06;4.73;;;4.30;;
920;SDS011;447;51.332;6.778;2023-10-31T06:08:33;5.07;;;4.40;;
920;SDS011;447;51.332;6.778;2023-10-31T06:11:00;5.53;;;4.43;;
920;SDS011;447;51.332;6.778;2023-10-31T06:13:28;5.23;;;4.77;;
920;SDS011;447;51.332;6.778;2023-10-31T06:15:59;4.30;;;3.97;;
920;SDS011;447;51.332;6.778;2023-10-31T06:18:28;4.30;;;3.90;;
920;SDS011;447;51.332;6.778;2023-10-31T06:20:57;5.80;;;4.03;;
920;SDS011;447;51.332;6.778;2023-10-31T06:23:23;4.83;;;4.43;;
920;SDS011;447;51.332;6.778;2023-10-31T06:25:51;5.00;;;4.57;;
920;SDS011;447;51.332;6.778;2023-10-31T06:28:18;5.27;;;4.87;;
920;SDS011;447;51.332;6.778;2023-10-31T06:30:44;4.10;;;3.80;;
920;SDS011;447;51.332;6.778;2023-10-31T06:33:10;5.13;;;4.40;;
920;SDS011;447;51.332;6.778;2023-10-31T06:35:37;4.43;;;4.03;;
920;SDS011;447;51.332;6.778;2023-10-31T06:38:03;4.73;;;4.33;;
920;SDS011;447;51.332;6.778;2023-10-31T06:40:31;4.47;;;4.13;;
920;SDS011;447;51.332;6.778;2023-10-31T06:43:00;4.60;;;4.20;;
920;SDS011;447;51.332;6.778;2023-10-31T06:45:32;5.83;;;4.10;;
920;SDS011;447;51.332;6.778;2023-10-31T06:47:58;5.93;;;4.30;;
920;SDS011;447;51.332;6.778;2023-10-31T06:50:24;4.20;;;3.87;;
920;SDS011;447;51.332;6.778;2023-10-31T06:52:53;4.77;;;4.37;;
920;SDS011;447;51.332;6.778;2023-10-31T06:55:19;5.40;;;5.00;;
920;SDS011;447;51.332;6.778;2023-10-31T06:57:47;5.20;;;4.70;;
920;SDS011;447;51.332;6.778;2023-10-31T07:00:13;5.03;;;4.53;;
920;SDS011;447;51.332;6.778;2023-10-31T07:02:39;4.93;;;4.43;;
920;SDS011;447;51.332;6.778;2023-10-31T07:05:05;4.90;;;4.50;;
920;SDS011;447;51.332;6.778;2023-10-31T07:07:34;4.87;;;4.47;;
920;SDS011;447;51.332;6.778;2023-10-31T07:10:05;5.30;;;4.80;;
920;SDS011;447;51.332;6.778;2023-10-31T07:12:34;5.40;;;4.90;;
920;SDS011;447;51.332;6.778;2023-10-31T07:15:03;5.30;;;4.90;;
920;SDS011;447;51.332;6.778;2023-10-31T07:17:30;6.00;;;5.40;;
920;SDS011;447;51.332;6.778;2023-10-31T07:19:56;5.63;;;5.03;;
920;SDS011;447;51.332;6.778;2023-10-31T07:22:27;7.10;;;5.30;;
920;SDS011;447;51.332;6.778;2023-10-31T07:24:55;5.17;;;4.67;;
920;SDS011;447;51.332;6.778;2023-10-31T07:27:24;5.20;;;4.80;;
920;SDS011;447;51.332;6.778;2023-10-31T07:29:52;5.60;;;5.10;;
920;SDS011;447;51.332;6.778;2023-10-31T07:32:18;6.47;;;5.30;;
920;SDS011;447;51.332;6.778;2023-10-31T07:34:44;6.40;;;5.20;;
920;SDS011;447;51.332;6.778;2023-10-31T07:37:12;6.77;;;5.30;;
920;SDS011;447;51.332;6.778;2023-10-31T07:39:38;5.37;;;4.87;;
920;SDS011;447;51.332;6.778;2023-10-31T07:42:04;6.13;;;5.53;;
920;SDS011;447;51.332;6.778;2023-10-31T07:44:33;9.03;;;5.67;;
920;SDS011;447;51.332;6.778;2023-10-31T07:47:00;5.83;;;5.33;;
920;SDS011;447;51.332;6.778;2023-10-31T07:49:28;5.73;;;5.23;;
920;SDS011;447;51.332;6.778;2023-10-31T07:51:55;5.70;;;5.20;;
920;SDS011;447;51.332;6.778;2023-10-31T07:54:21;6.20;;;5.60;;
920;SDS011;447;51.332;6.778;2023-10-31T07:56:50;5.50;;;5.00;;
920;SDS011;447;51.332;6.778;2023-10-31T07:59:18;6.20;;;5.70;;
920;SDS011;447;51.332;6.778;2023-10-31T08:01:44;7.10;;;5.10;;
920;SDS011;447;51.332;6.778;2023-10-31T08:04:10;6.80;;;6.20;;
920;SDS011;447;51.332;6.778;2023-10-31T08:06:38;5.90;;;5.40;;
920;SDS011;447;51.332;6.778;2023-10-31T08:09:04;5.43;;;4.90;;
920;SDS011;447;51.332;6.778;2023-10-31T08:11:32;6.00;;;5.50;;
920;SDS011;447;51.332;6.778;2023-10-31T08:14:00;5.50;;;5.10;;
920;SDS011;447;51.332;6.778;2023-10-31T08:16:33;6.03;;;5.53;;
920;SDS011;447;51.332;6.778;2023-10-31T08:19:00;5.30;;;4.80;;
920;SDS011;447;51.332;6.778;2023-10-31T08:21:26;5.50;;;5.00;;
920;SDS011;447;51.332;6.778;2023-10-31T08:23:59;5.10;;;4.70;;
920;SDS011;447;51.332;6.778;2023-10-31T08:26:30;5.83;;;5.30;;
920;SDS011;447;51.332;6.778;2023-10-31T08:29:02;5.90;;;4.60;;
920;SDS011;447;51.332;6.778;2023-10-31T08:31:28;5.20;;;4.80;;
920;SDS011;447;51.332;6.778;2023-10-31T08:33:54;4.93;;;4.53;;
920;SDS011;447;51.332;6.778;2023-10-31T08:36:23;4.60;;;4.30;;
920;SDS011;447;51.332;6.778;2023-10-31T08:38:49;5.77;;;5.00;;
920;SDS011;447;51.332;6.778;2023-10-31T08:41:17;4.77;;;4.40;;
920;SDS011;447;51.332;6.778;2023-10-31T08:43:46;5.33;;;4.83;;
920;SDS011;447;51.332;6.778;2023-10-31T08:46:12;4.97;;;4.57;;
920;SDS011;447;51.332;6.778;2023-10-31T08:48:38;5.10;;;4.70;;
920;SDS011;447;51.332;6.778;2023-10-31T08:51:06;9.10;;;4.33;;
920;SDS011;447;51.332;6.778;2023-10-31T08:53:36;5.10;;;4.70;;
920;SDS011;447;51.332;6.778;2023-10-31T08:56:04;4.77;;;4.37;;
920;SDS011;447;51.332;6.778;2023-10-31T08:58:33;4.47;;;4.13;;
920;SDS011;447;51.332;6.778;2023-10-31T09:01:01;4.17;;;3.77;;
920;SDS011;447;51.332;6.778;2023-10-31T09:03:27;4.90;;;4.47;;
920;SDS011;447;51.332;6.778;2023-10-31T09:05:53;4.47;;;4.17;;
920;SDS011;447;51.332;6.778;2023-10-31T09:08:20;4.67;;;4.30;;
920;SDS011;447;51.332;6.778;2023-10-31T09:10:49;4.70;;;4.30;;
920;SDS011;447;51.332;6.778;2023-10-31T09:13:17;4.10;;;3.80;;
920;SDS011;447;51.332;6.778;2023-10-31T09:15:45;4.33;;;4.03;;
920;SDS011;447;51.332;6.778;2023-10-31T09:21:00;4.30;;;4.00;;
920;SDS011;447;51.332;6.778;2023-10-31T09:23:29;4.80;;;4.40;;
920;SDS011;447;51.332;6.778;2023-10-31T09:25:55;4.20;;;3.80;;
920;SDS011;447;51.332;6.778;2023-10-31T09:28:24;4.60;;;4.20;;
920;SDS011;447;51.332;6.778;2023-10-31T09:30:50;5.27;;;4.80;;
920;SDS011;447;51.332;6.778;2023-10-31T09:33:16;4.93;;;4.60;;
920;SDS011;447;51.332;6.778;2023-10-31T09:35:43;5.67;;;5.20;;
920;SDS011;447;51.332;6.778;2023-10-31T09:38:09;5.47;;;4.90;;
920;SDS011;447;51.332;6.778;2023-10-31T09:40:39;7.00;;;5.13;;
920;SDS011;447;51.332;6.778;2023-10-31T09:43:05;5.13;;;4.63;;
920;SDS011;447;51.332;6.778;2023-10-31T09:45:31;5.20;;;4.80;;
920;SDS011;447;51.332;6.778;2023-10-31T09:47:58;5.73;;;5.20;;
920;SDS011;447;51.332;6.778;2023-10-31T09:50:26;5.20;;;4.80;;
920;SDS011;447;51.332;6.778;2023-10-31T09:52:54;4.93;;;4.53;;
920;SDS011;447;51.332;6.778;2023-10-31T09:55:21;7.90;;;4.83;;
920;SDS011;447;51.332;6.778;2023-10-31T09:57:49;5.20;;;4.70;;
920;SDS011;447;51.332;6.778;2023-10-31T10:00:18;6.03;;;4.93;;
920;SDS011;447;51.332;6.778;2023-10-31T10:02:49;5.60;;;5.00;;
920;SDS011;447;51.332;6.778;2023-10-31T10:05:16;5.80;;;4.90;;
920;SDS011;447;51.332;6.778;2023-10-31T10:07:45;5.57;;;5.07;;
920;SDS011;447;51.332;6.778;2023-10-31T10:10:11;5.97;;;5.30;;
920;SDS011;447;51.332;6.778;2023-10-31T10:12:38;5.67;;;5.17;;
920;SDS011;447;51.332;6.778;2023-10-31T10:15:10;5.33;;;4.83;;
920;SDS011;447;51.332;6.778;2023-10-31T10:17:37;4.80;;;4.40;;
920;SDS011;447;51.332;6.778;2023-10-31T10:20:05;5.50;;;5.00;;
920;SDS011;447;51.332;6.778;2023-10-31T10:22:37;6.27;;;5.23;;
920;SDS011;447;51.332;6.778;2023-10-31T10:25:14;6.17;;;5.60;;
920;SDS011;447;51.332;6.778;2023-10-31T10:27:43;5.47;;;4.97;;
920;SDS011;447;51.332;6.778;2023-10-31T10:30:10;4.87;;;4.47;;
920;SDS011;447;51.332;6.778;2023-10-31T10:32:38;5.67;;;5.07;;
920;SDS011;447;51.332;6.778;2023-10-31T10:35:07;4.97;;;4.67;;
920;SDS011;447;51.332;6.778;2023-10-31T10:37:38;5.20;;;4.37;;
920;SDS011;447;51.332;6.778;2023-10-31T10:40:06;4.90;;;4.50;;
920;SDS011;447;51.332;6.778;2023-10-31T10:42:36;6.30;;;4.13;;
920;SDS011;447;51.332;6.778;2023-10-31T10:45:16;5.33;;;3.80;;
920;SDS011;447;51.332;6.778;2023-10-31T10:47:53;7.00;;;4.50;;
920;SDS011;447;51.332;6.778;2023-10-31T10:50:25;4.63;;;3.93;;
920;SDS011;447;51.332;6.778;2023-10-31T10:53:17;5.87;;;4.77;;
920;SDS011;447;51.332;6.778;2023-10-31T10:55:51;4.70;;;3.97;;
920;SDS011;447;51.332;6.778;2023-10-31T11:01:21;3.87;;;3.47;;
920;SDS011;447;51.332;6.778;2023-10-31T11:03:48;3.70;;;3.40;;
920;SDS011;447;51.332;6.778;2023-10-31T11:06:18;4.93;;;3.90;;
920;SDS011;447;51.332;6.778;2023-10-31T11:08:48;5.10;;;4.00;;
920;SDS011;447;51.332;6.778;2023-10-31T11:11:17;3.73;;;3.33;;
920;SDS011;447;51.332;6.778;2023-10-31T11:13:50;3.97;;;3.57;;
920;SDS011;447;51.332;6.778;2023-10-31T11:16:38;3.87;;;3.47;;
920;SDS011;447;51.332;6.778;2023-10-31T11:19:09;4.20;;;3.30;;
920;SDS011;447;51.332;6.778;2023-10-31T11:21:37;8.03;;;3.47;;
920;SDS011;447;51.332;6.778;2023-10-31T11:24:30;3.73;;;3.33;;
920;SDS011;447;51.332;6.778;2023-10-31T11:27:00;3.30;;;3.00;;
920;SDS011;447;51.332;6.778;2023-10-31T11:29:30;4.83;;;2.90;;
920;SDS011;447;51.332;6.778;2023-10-31T11:31:57;4.20;;;2.93;;
920;SDS011;447;51.332;6.778;2023-10-31T11:34:27;4.30;;;3.40;;
920;SDS011;447;51.332;6.778;2023-10-31T11:40:21;3.90;;;3.50;;
920;SDS011;447;51.332;6.778;2023-10-31T11:42:51;3.03;;;2.83;;
920;SDS011;447;51.332;6.778;2023-10-31T11:48:13;5.73;;;3.33;;
920;SDS011;447;51.332;6.778;2023-10-31T11:50:40;3.50;;;2.90;;
920;SDS011;447;51.332;6.778;2023-10-31T11:53:13;4.03;;;2.60;;
920;SDS011;447;51.332;6.778;2023-10-31T11:55:46;6.43;;;3.20;;
920;SDS011;447;51.332;6.778;2023-10-31T12:00:49;3.83;;;2.90;;
920;SDS011;447;51.332;6.778;2023-10-31T12:03:20;3.60;;;3.10;;
920;SDS011;447;51.332;6.778;2023-10-31T12:05:53;6.20;;;3.40;;
920;SDS011;447;51.332;6.778;2023-10-31T12:08:38;3.20;;;2.90;;
920;SDS011;447;51.332;6.778;2023-10-31T12:13:51;3.13;;;2.93;;
920;SDS011;447;51.332;6.778;2023-10-31T12:16:31;5.87;;;2.87;;
920;SDS011;447;51.332;6.778;2023-10-31T12:19:00;3.00;;;2.70;;
920;SDS011;447;51.332;6.778;2023-10-31T12:21:42;3.03;;;2.83;;
920;SDS011;447;51.332;6.778;2023-10-31T12:24:10;2.97;;;2.77;;
920;SDS011;447;51.332;6.778;2023-10-31T12:26:39;4.40;;;3.23;;
920;SDS011;447;51.332;6.778;2023-10-31T12:31:52;3.83;;;3.07;;
920;SDS011;447;51.332;6.778;2023-10-31T12:34:20;2.70;;;2.50;;
920;SDS011;447;51.332;6.778;2023-10-31T12:36:49;3.33;;;2.93;;
920;SDS011;447;51.332;6.778;2023-10-31T12:39:18;4.70;;;3.00;;
920;SDS011;447;51.332;6.778;2023-10-31T12:41:51;4.87;;;2.60;;
920;SDS011;447;51.332;6.778;2023-10-31T12:44:25;3.87;;;2.93;;
920;SDS011;447;51.332;6.778;2023-10-31T12:46:54;4.37;;;2.47;;
920;SDS011;447;51.332;6.778;2023-10-31T12:49:24;2.77;;;2.47;;
920;SDS011;447;51.332;6.778;2023-10-31T12:51:58;3.17;;;2.87;;
920;SDS011;447;51.332;6.778;2023-10-31T12:56:58;3.63;;;3.27;;
920;SDS011;447;51.332;6.778;2023-10-31T12:59:26;2.97;;;2.77;;
920;SDS011;447;51.332;6.778;2023-10-31T13:01:55;2.97;;;2.77;;
920;SDS011;447;51.332;6.778;2023-10-31T13:04:28;3.13;;;2.20;;
920;SDS011;447;51.332;6.778;2023-10-31T13:06:55;6.40;;;2.60;;
920;SDS011;447;51.332;6.778;2023-10-31T13:12:06;3.40;;;2.63;;
920;SDS011;447;51.332;6.778;2023-10-31T13:14:36;4.37;;;2.73;;
920;SDS011;447;51.332;6.778;2023-10-31T13:17:04;3.40;;;2.47;;
920;SDS011;447;51.332;6.778;2023-10-31T13:19:33;3.37;;;2.90;;
920;SDS011;447;51.332;6.778;2023-10-31T13:22:02;3.07;;;2.77;;
920;SDS011;447;51.332;6.778;2023-10-31T13:24:31;4.77;;;3.20;;
920;SDS011;447;51.332;6.778;2023-10-31T13:27:02;3.40;;;2.63;;
920;SDS011;447;51.332;6.778;2023-10-31T13:29:31;3.30;;;3.00;;
920;SDS011;447;51.332;6.778;2023-10-31T13:32:01;3.30;;;3.00;;
920;SDS011;447;51.332;6.778;2023-10-31T13:34:31;3.10;;;2.80;;
920;SDS011;447;51.332;6.778;2023-10-31T13:37:01;2.83;;;2.60;;
920;SDS011;447;51.332;6.778;2023-10-31T13:39:31;3.10;;;2.80;;
920;SDS011;447;51.332;6.778;2023-10-31T13:41:57;4.40;;;2.63;;
920;SDS011;447;51.332;6.778;2023-10-31T13:44:25;4.07;;;3.37;;
920;SDS011;447;51.332;6.778;2023-10-31T13:46:53;3.13;;;2.93;;
920;SDS011;447;51.332;6.778;2023-10-31T13:49:21;4.33;;;3.10;;
920;SDS011;447;51.332;6.778;2023-10-31T13:51:48;2.80;;;2.60;;
920;SDS011;447;51.332;6.778;2023-10-31T13:54:17;3.33;;;3.00;;
920;SDS011;447;51.332;6.778;2023-10-31T13:56:47;4.23;;;3.17;;
920;SDS011;447;51.332;6.778;2023-10-31T13:59:19;3.73;;;3.07;;
920;SDS011;447;51.332;6.778;2023-10-31T14:01:46;3.10;;;2.80;;
920;SDS011;447;51.332;6.778;2023-10-31T14:04:13;3.63;;;3.30;;
920;SDS011;447;51.332;6.778;2023-10-31T14:06:47;2.80;;;2.60;;
920;SDS011;447;51.332;6.778;2023-10-31T14:09:13;3.27;;;3.07;;
920;SDS011;447;51.332;6.778;2023-10-31T14:11:42;3.27;;;3.00;;
920;SDS011;447;51.332;6.778;2023-10-31T14:14:08;3.73;;;3.40;;
920;SDS011;447;51.332;6.778;2023-10-31T14:16:40;3.33;;;3.13;;
920;SDS011;447;51.332;6.778;2023-10-31T14:19:10;3.23;;;3.03;;
920;SDS011;447;51.332;6.778;2023-10-31T14:21:39;3.67;;;3.37;;
920;SDS011;447;51.332;6.778;2023-10-31T14:24:10;5.80;;;3.50;;
920;SDS011;447;51.332;6.778;2023-10-31T14:26:38;3.33;;;3.10;;
920;SDS011;447;51.332;6.778;2023-10-31T14:29:05;2.93;;;2.70;;
920;SDS011;447;51.332;6.778;2023-10-31T14:31:43;2.70;;;2.50;;
920;SDS011;447;51.332;6.778;2023-10-31T14:34:11;3.37;;;3.07;;
920;SDS011;447;51.332;6.778;2023-10-31T14:36:47;4.47;;;2.87;;
920;SDS011;447;51.332;6.778;2023-10-31T14:39:14;3.40;;;3.00;;
920;SDS011;447;51.332;6.778;2023-10-31T14:41:42;2.90;;;2.70;;
920;SDS011;447;51.332;6.778;2023-10-31T14:44:08;3.50;;;3.13;;
920;SDS011;447;51.332;6.778;2023-10-31T14:46:34;3.20;;;3.00;;
920;SDS011;447;51.332;6.778;2023-10-31T14:49:03;2.80;;;2.60;;
920;SDS011;447;51.332;6.778;2023-10-31T14:51:31;3.20;;;3.00;;
920;SDS011;447;51.332;6.778;2023-10-31T14:53:57;3.50;;;3.30;;
920;SDS011;447;51.332;6.778;2023-10-31T14:56:24;3.37;;;3.00;;
920;SDS011;447;51.332;6.778;2023-10-31T14:58:54;5.40;;;2.70;;
920;SDS011;447;51.332;6.778;2023-10-31T15:01:20;2.93;;;2.63;;
920;SDS011;447;51.332;6.778;2023-10-31T15:03:51;2.87;;;2.67;;
920;SDS011;447;51.332;6.778;2023-10-31T15:06:17;3.97;;;2.67;;
920;SDS011;447;51.332;6.778;2023-10-31T15:08:43;3.10;;;2.50;;
920;SDS011;447;51.332;6.778;2023-10-31T15:11:09;3.13;;;2.93;;
920;SDS011;447;51.332;6.778;2023-10-31T15:13:38;2.73;;;2.53;;
920;SDS011;447;51.332;6.778;2023-10-31T15:16:04;5.90;;;2.27;;
920;SDS011;447;51.332;6.778;2023-10-31T15:18:30;2.77;;;2.57;;
920;SDS011;447;51.332;6.778;2023-10-31T15:20:58;2.80;;;2.60;;
920;SDS011;447;51.332;6.778;2023-10-31T15:23:25;2.60;;;2.40;;
920;SDS011;447;51.332;6.778;2023-10-31T15:25:55;2.80;;;2.60;;
920;SDS011;447;51.332;6.778;2023-10-31T15:28:24;3.50;;;2.40;;
920;SDS011;447;51.332;6.778;2023-10-31T15:30:53;3.63;;;2.70;;
920;SDS011;447;51.332;6.778;2023-10-31T15:33:21;3.10;;;2.50;;
920;SDS011;447;51.332;6.778;2023-10-31T15:35:52;4.33;;;2.70;;
920;SDS011;447;51.332;6.778;2023-10-31T15:38:23;4.07;;;3.13;;
920;SDS011;447;51.332;6.778;2023-10-31T15:40:51;6.63;;;2.30;;
920;SDS011;447;51.332;6.778;2023-10-31T15:43:18;3.10;;;2.73;;
920;SDS011;447;51.332;6.778;2023-10-31T15:45:44;3.77;;;2.40;;
920;SDS011;447;51.332;6.778;2023-10-31T15:48:12;3.10;;;2.80;;
920;SDS011;447;51.332;6.778;2023-10-31T15:50:39;3.20;;;2.90;;
920;SDS011;447;51.332;6.778;2023-10-31T15:53:09;2.73;;;2.53;;
920;SDS011;447;51.332;6.778;2023-10-31T15:55:35;3.63;;;3.17;;
920;SDS011;447;51.332;6.778;2023-10-31T15:58:04;3.40;;;2.90;;
920;SDS011;447;51.332;6.778;2023-10-31T16:00:37;3.43;;;3.17;;
920;SDS011;447;51.332;6.778;2023-10-31T16:03:08;4.70;;;3.10;;
920;SDS011;447;51.332;6.778;2023-10-31T16:05:36;8.73;;;2.83;;
920;SDS011;447;51.332;6.778;2023-10-31T16:08:04;4.23;;;3.43;;
920;SDS011;447;51.332;6.778;2023-10-31T16:10:30;4.30;;;2.47;;
920;SDS011;447;51.332;6.778;2023-10-31T16:12:56;4.50;;;2.90;;
920;SDS011;447;51.332;6.778;2023-10-31T16:15:22;3.30;;;2.90;;
920;SDS011;447;51.332;6.778;2023-10-31T16:17:51;2.80;;;2.50;;